createdAt,value
2018-12-25T00:02:14.825Z,5.77
2018-12-25T00:04:44.251Z,5.10
2018-12-25T00:07:14.055Z,5.30
2018-12-25T00:09:43.507Z,5.50
2018-12-25T00:12:13.460Z,5.67
2018-12-25T00:14:43.219Z,6.43
2018-12-25T00:17:12.771Z,6.90
2018-12-25T00:19:42.733Z,6.70
2018-12-25T00:22:12.305Z,7.27
2018-12-25T00:24:41.810Z,8.27
2018-12-25T00:27:11.397Z,7.20
2018-12-25T00:29:40.794Z,7.70
2018-12-25T00:32:10.196Z,7.67
2018-12-25T00:34:39.576Z,9.60
2018-12-25T00:37:09.265Z,9.10
2018-12-25T00:39:38.951Z,7.57
2018-12-25T00:42:09.070Z,8.13
2018-12-25T00:44:38.510Z,7.90
2018-12-25T00:47:07.966Z,7.50
2018-12-25T00:49:37.466Z,7.20
2018-12-25T00:52:06.837Z,11.40
2018-12-25T00:54:36.304Z,10.17
2018-12-25T00:57:06.118Z,8.10
2018-12-25T00:59:35.573Z,9.00
2018-12-25T01:02:05.392Z,8.37
2018-12-25T01:04:35.388Z,10.33
2018-12-25T01:07:04.858Z,8.27
2018-12-25T01:09:34.308Z,8.00
2018-12-25T01:12:04.390Z,8.43
2018-12-25T01:14:34.343Z,7.43
2018-12-25T01:17:04.266Z,9.37
2018-12-25T01:19:34.151Z,8.07
2018-12-25T01:22:03.845Z,9.10
2018-12-25T01:24:33.328Z,9.50
2018-12-25T01:27:02.770Z,11.23
2018-12-25T01:29:32.177Z,8.73
2018-12-25T01:32:01.600Z,10.27
2018-12-25T01:34:31.418Z,9.60
2018-12-25T01:37:01.216Z,8.80
2018-12-25T01:39:30.956Z,9.40
2018-12-25T01:42:00.408Z,10.27
2018-12-25T01:44:29.848Z,11.00
2018-12-25T01:46:59.593Z,11.33
2018-12-25T01:49:31.834Z,12.53
2018-12-25T01:52:00.125Z,10.90
2018-12-25T01:54:29.580Z,11.37
2018-12-25T01:56:59.042Z,16.67
2018-12-25T01:59:28.481Z,11.07
2018-12-25T02:01:57.895Z,13.07
2018-12-25T02:04:27.229Z,14.87
2018-12-25T02:06:56.662Z,16.27
2018-12-25T02:09:26.412Z,16.93
2018-12-25T02:11:56.321Z,15.83
2018-12-25T02:14:25.713Z,17.97
2018-12-25T02:16:55.207Z,15.50
2018-12-25T02:19:24.624Z,16.13
2018-12-25T02:21:54.049Z,13.53
2018-12-25T02:24:23.400Z,14.47
2018-12-25T02:26:52.882Z,16.23
2018-12-25T02:29:22.332Z,14.87
2018-12-25T02:31:51.811Z,16.20
2018-12-25T02:34:21.290Z,15.90
2018-12-25T02:36:51.079Z,17.70
2018-12-25T02:39:20.508Z,20.45
2018-12-25T02:41:49.914Z,19.67
2018-12-25T02:44:19.361Z,18.97
2018-12-25T02:46:48.773Z,17.70
2018-12-25T02:49:18.427Z,17.37
2018-12-25T02:51:47.853Z,17.27
2018-12-25T02:54:17.293Z,15.40
2018-12-25T02:56:46.699Z,16.53
2018-12-25T02:59:16.446Z,20.77
2018-12-25T03:01:45.908Z,18.57
2018-12-25T03:04:15.682Z,17.40
2018-12-25T03:06:45.464Z,22.60
2018-12-25T03:09:15.830Z,23.10
2018-12-25T03:11:45.228Z,19.97
2018-12-25T03:14:14.604Z,24.80
2018-12-25T03:16:44.330Z,25.77
2018-12-25T03:19:13.766Z,24.60
2018-12-25T03:21:43.208Z,26.67
2018-12-25T03:24:12.600Z,27.57
2018-12-25T03:26:42.404Z,23.87
2018-12-25T03:29:12.147Z,28.43
2018-12-25T03:31:41.567Z,28.13
2018-12-25T03:34:11.038Z,20.80
2018-12-25T03:36:41.249Z,19.60
2018-12-25T03:39:10.680Z,21.63
2018-12-25T03:41:40.106Z,21.00
2018-12-25T03:44:09.534Z,24.80
2018-12-25T03:46:38.994Z,22.00
2018-12-25T03:49:08.464Z,25.07
2018-12-25T03:51:37.918Z,24.10
2018-12-25T03:54:07.396Z,24.57
2018-12-25T03:56:36.772Z,25.13
2018-12-25T03:59:06.208Z,23.47
2018-12-25T04:01:35.624Z,24.03
2018-12-25T04:04:05.009Z,23.30
2018-12-25T04:06:34.364Z,21.93
2018-12-25T04:09:04.089Z,24.60
2018-12-25T04:11:33.533Z,23.67
2018-12-25T04:14:03.811Z,24.73
2018-12-25T04:16:33.248Z,24.97
2018-12-25T04:19:02.673Z,25.37
2018-12-25T04:21:32.518Z,23.40
2018-12-25T04:24:02.303Z,26.93
2018-12-25T04:26:32.186Z,23.13
2018-12-25T04:29:01.587Z,25.00
2018-12-25T04:31:30.965Z,28.93
2018-12-25T04:34:00.442Z,24.07
2018-12-25T04:36:30.156Z,25.77
2018-12-25T04:38:59.557Z,24.53
2018-12-25T04:41:29.028Z,25.50
2018-12-25T04:43:58.434Z,24.13
2018-12-25T04:46:28.193Z,24.90
2018-12-25T04:48:57.627Z,26.93
2018-12-25T04:51:27.063Z,25.90
2018-12-25T04:53:56.843Z,26.93
2018-12-25T04:56:26.255Z,26.60
2018-12-25T04:58:55.680Z,30.83
2018-12-25T05:01:25.039Z,25.57
2018-12-25T05:03:54.516Z,26.83
2018-12-25T05:06:24.293Z,28.30
2018-12-25T05:08:53.771Z,32.27
2018-12-25T05:11:23.150Z,30.47
2018-12-25T05:13:52.629Z,29.93
2018-12-25T05:16:22.072Z,27.27
2018-12-25T05:18:51.480Z,28.50
2018-12-25T05:21:21.660Z,27.40
2018-12-25T05:23:51.126Z,29.30
2018-12-25T05:26:20.546Z,28.07
2018-12-25T05:28:49.873Z,29.50
2018-12-25T05:31:19.615Z,29.93
2018-12-25T05:33:49.333Z,28.57
2018-12-25T05:36:18.744Z,30.70
2018-12-25T05:38:48.438Z,28.87
2018-12-25T05:41:17.952Z,26.90
2018-12-25T05:43:47.664Z,30.43
2018-12-25T05:46:17.082Z,29.00
2018-12-25T05:48:46.518Z,29.23
2018-12-25T05:51:16.399Z,28.20
2018-12-25T05:53:45.822Z,27.80
2018-12-25T05:56:15.221Z,29.70
2018-12-25T05:58:44.671Z,28.17
2018-12-25T06:01:14.074Z,27.67
2018-12-25T06:03:43.522Z,27.70
2018-12-25T06:06:13.284Z,31.93
2018-12-25T06:08:42.854Z,31.07
2018-12-25T06:11:12.227Z,29.40
2018-12-25T06:13:42.275Z,31.67
2018-12-25T06:16:11.703Z,27.83
2018-12-25T06:18:41.650Z,31.03
2018-12-25T06:21:11.056Z,29.37
2018-12-25T06:23:40.493Z,34.30
2018-12-25T06:26:10.228Z,31.50
2018-12-25T06:28:39.643Z,33.13
2018-12-25T06:31:09.573Z,31.90
2018-12-25T06:33:39.466Z,29.13
2018-12-25T06:36:08.859Z,28.43
2018-12-25T06:38:39.948Z,28.73
2018-12-25T06:41:09.452Z,29.43
2018-12-25T06:43:38.861Z,27.73
2018-12-25T06:46:08.273Z,26.67
2018-12-25T06:48:38.063Z,29.80
2018-12-25T06:51:07.481Z,27.53
2018-12-25T06:53:37.211Z,28.80
2018-12-25T06:56:07.253Z,28.43
2018-12-25T06:58:36.715Z,27.80
2018-12-25T07:01:06.112Z,26.00
2018-12-25T07:03:36.093Z,24.10
2018-12-25T07:06:05.918Z,28.20
2018-12-25T07:08:35.651Z,27.60
2018-12-25T07:11:05.129Z,25.73
2018-12-25T07:13:34.836Z,26.10
2018-12-25T07:16:04.562Z,25.30
2018-12-25T07:18:33.912Z,25.73
2018-12-25T07:21:03.403Z,24.53
2018-12-25T07:23:32.802Z,25.17
2018-12-25T07:26:02.482Z,23.40
2018-12-25T07:28:31.957Z,26.63
2018-12-25T07:31:01.776Z,24.70
2018-12-25T07:33:31.686Z,24.20
2018-12-25T07:36:01.296Z,24.20
2018-12-25T07:38:30.703Z,26.17
2018-12-25T07:41:00.701Z,22.53
2018-12-25T07:43:30.105Z,22.20
2018-12-25T07:45:59.900Z,24.27
2018-12-25T07:48:29.313Z,23.53
2018-12-25T07:50:58.779Z,23.57
2018-12-25T07:53:28.509Z,24.07
2018-12-25T07:55:57.962Z,23.17
2018-12-25T07:58:27.710Z,25.27
2018-12-25T08:00:57.151Z,21.60
2018-12-25T08:03:27.031Z,24.27
2018-12-25T08:05:56.458Z,22.00
2018-12-25T08:08:25.940Z,21.37
2018-12-25T08:10:55.381Z,22.17
2018-12-25T08:13:25.313Z,24.67
2018-12-25T08:15:55.167Z,24.87
2018-12-25T08:18:25.293Z,21.97
2018-12-25T08:20:54.714Z,26.73
2018-12-25T08:23:24.118Z,23.53
2018-12-25T08:25:53.622Z,22.63
2018-12-25T08:28:23.044Z,22.80
2018-12-25T08:30:52.560Z,25.03
2018-12-25T08:33:21.953Z,26.67
2018-12-25T08:35:51.373Z,23.50
2018-12-25T08:38:20.852Z,25.40
2018-12-25T08:40:50.436Z,26.63
2018-12-25T08:43:19.850Z,22.23
2018-12-25T08:45:49.301Z,29.53
2018-12-25T08:48:19.225Z,24.30
2018-12-25T08:50:48.656Z,23.03
2018-12-25T08:53:18.092Z,23.47
2018-12-25T08:55:48.025Z,23.40
2018-12-25T08:58:17.762Z,20.40
2018-12-25T09:00:47.674Z,19.90
2018-12-25T09:03:17.102Z,20.50
2018-12-25T09:05:46.612Z,21.10
2018-12-25T09:08:16.038Z,21.23
2018-12-25T09:11:09.670Z,16.07
2018-12-25T09:13:39.133Z,16.60
2018-12-25T09:16:08.592Z,15.30
2018-12-25T09:18:38.577Z,17.37
2018-12-25T09:21:08.040Z,15.70
2018-12-25T09:23:37.462Z,17.03
2018-12-25T09:26:07.330Z,16.90
2018-12-25T09:28:36.801Z,15.03
2018-12-25T09:31:06.553Z,16.43
2018-12-25T09:33:36.294Z,16.47
2018-12-25T09:36:05.729Z,16.97
2018-12-25T09:38:35.462Z,16.10
2018-12-25T09:41:04.886Z,16.07
2018-12-25T09:43:34.356Z,15.80
2018-12-25T09:46:06.119Z,16.43
2018-12-25T09:48:36.210Z,16.83
2018-12-25T09:51:05.792Z,15.00
2018-12-25T09:53:35.238Z,17.63
2018-12-25T09:56:04.663Z,17.83
2018-12-25T09:58:34.451Z,14.93
2018-12-25T10:01:03.863Z,17.20
2018-12-25T10:03:33.290Z,16.20
2018-12-25T10:06:21.774Z,16.03
2018-12-25T10:08:51.323Z,16.87
2018-12-25T10:11:21.114Z,15.15
2018-12-25T10:13:50.589Z,15.97
2018-12-25T10:16:20.353Z,16.43
2018-12-25T10:18:49.892Z,16.47
2018-12-25T10:21:19.324Z,18.50
2018-12-25T10:23:48.795Z,16.30
2018-12-25T10:26:18.276Z,16.00
2018-12-25T10:28:47.707Z,16.13
2018-12-25T10:31:17.174Z,15.40
2018-12-25T10:33:46.693Z,16.63
2018-12-25T10:36:16.176Z,17.67
2018-12-25T10:38:45.615Z,16.47
2018-12-25T10:41:15.183Z,16.43
2018-12-25T10:43:44.679Z,17.10
2018-12-25T10:46:14.140Z,17.27
2018-12-25T10:48:43.515Z,17.00
2018-12-25T10:51:12.976Z,17.27
2018-12-25T10:53:42.345Z,16.63
2018-12-25T10:56:12.120Z,18.30
2018-12-25T10:58:41.621Z,18.30
2018-12-25T11:01:21.804Z,19.67
2018-12-25T11:03:54.111Z,19.93
2018-12-25T11:06:23.573Z,18.20
2018-12-25T11:08:53.264Z,19.27
2018-12-25T11:11:23.001Z,18.37
2018-12-25T11:13:52.357Z,17.87
2018-12-25T11:16:21.900Z,21.10
2018-12-25T11:18:51.237Z,18.97
2018-12-25T11:21:20.629Z,21.57
2018-12-25T11:23:50.072Z,20.00
2018-12-25T11:26:19.859Z,18.93
2018-12-25T11:28:49.731Z,18.93
2018-12-25T11:31:19.192Z,17.90
2018-12-25T11:33:48.648Z,18.13
2018-12-25T11:36:18.096Z,18.03
2018-12-25T11:38:47.445Z,17.20
2018-12-25T11:41:16.851Z,18.27
2018-12-25T11:43:46.268Z,15.73
2018-12-25T11:46:16.482Z,16.23
2018-12-25T11:48:45.941Z,15.90
2018-12-25T11:51:16.727Z,14.03
2018-12-25T11:53:46.118Z,14.10
2018-12-25T11:56:15.515Z,12.97
2018-12-25T11:58:44.849Z,14.00
2018-12-25T12:01:14.318Z,13.73
2018-12-25T12:03:43.675Z,14.77
2018-12-25T12:06:15.665Z,14.20
2018-12-25T12:08:45.067Z,13.13
2018-12-25T12:11:14.505Z,13.57
2018-12-25T12:13:43.977Z,11.97
2018-12-25T12:16:13.352Z,12.40
2018-12-25T12:18:43.193Z,12.63
2018-12-25T12:21:12.695Z,13.33
2018-12-25T12:23:42.157Z,13.40
2018-12-25T12:26:11.553Z,13.53
2018-12-25T12:28:41.341Z,14.07
2018-12-25T12:31:10.765Z,13.70
2018-12-25T12:33:40.213Z,14.13
2018-12-25T12:36:09.615Z,14.47
2018-12-25T12:38:39.067Z,14.23
2018-12-25T12:41:08.495Z,14.33
2018-12-25T12:43:37.953Z,14.17
2018-12-25T12:46:07.815Z,14.23
2018-12-25T12:48:37.247Z,14.63
2018-12-25T12:51:07.037Z,14.10
2018-12-25T12:53:36.520Z,15.40
2018-12-25T12:56:06.326Z,15.20
2018-12-25T12:58:35.725Z,14.67
2018-12-25T13:01:05.184Z,15.17
2018-12-25T13:03:34.628Z,15.10
2018-12-25T13:06:04.045Z,16.17
2018-12-25T13:08:33.488Z,15.93
2018-12-25T13:11:03.270Z,14.60
2018-12-25T13:13:32.716Z,14.07
2018-12-25T13:16:02.139Z,13.67
2018-12-25T13:18:31.684Z,15.00
2018-12-25T13:21:01.122Z,17.20
2018-12-25T13:23:30.558Z,14.63
2018-12-25T13:25:59.925Z,15.03
2018-12-25T13:28:29.369Z,14.33
2018-12-25T13:30:58.766Z,13.97
2018-12-25T13:33:28.217Z,14.03
2018-12-25T13:35:57.762Z,15.47
2018-12-25T13:38:27.922Z,13.77
2018-12-25T13:40:57.370Z,13.63
2018-12-25T13:43:26.837Z,14.07
2018-12-25T13:45:56.288Z,14.33
2018-12-25T13:48:25.664Z,14.10
2018-12-25T13:50:55.427Z,12.67
2018-12-25T13:53:24.895Z,13.47
2018-12-25T13:55:54.383Z,13.70
2018-12-25T13:58:23.873Z,14.83
2018-12-25T14:00:53.734Z,13.67
2018-12-25T14:03:23.511Z,12.97
2018-12-25T14:05:52.971Z,13.00
2018-12-25T14:08:22.397Z,15.17
2018-12-25T14:10:51.792Z,13.30
2018-12-25T14:13:21.262Z,13.67
2018-12-25T14:15:50.701Z,16.43
2018-12-25T14:18:20.153Z,15.10
2018-12-25T14:20:49.587Z,13.60
2018-12-25T14:23:18.931Z,17.33
2018-12-25T14:25:48.723Z,16.23
2018-12-25T14:28:18.177Z,16.27
2018-12-25T14:30:48.043Z,14.80
2018-12-25T14:33:17.468Z,16.87
2018-12-25T14:35:46.929Z,14.37
2018-12-25T14:38:17.357Z,15.23
2018-12-25T14:40:47.499Z,15.20
2018-12-25T14:43:16.912Z,15.43
2018-12-25T14:45:46.726Z,16.17
2018-12-25T14:48:16.139Z,16.10
2018-12-25T14:50:45.602Z,16.00
2018-12-25T14:53:19.749Z,14.07
2018-12-25T14:55:46.425Z,18.07
2018-12-25T14:58:15.919Z,15.57
2018-12-25T15:00:45.345Z,14.40
2018-12-25T15:03:14.700Z,13.70
2018-12-25T15:05:44.119Z,13.97
2018-12-25T15:08:13.583Z,14.83
2018-12-25T15:10:43.073Z,14.97
2018-12-25T15:13:12.522Z,16.00
2018-12-25T15:15:41.959Z,14.17
2018-12-25T15:18:11.437Z,14.17
2018-12-25T15:20:40.857Z,14.63
2018-12-25T15:23:10.330Z,14.90
2018-12-25T15:25:39.782Z,14.03
2018-12-25T15:28:09.276Z,14.47
2018-12-25T15:30:38.728Z,16.07
2018-12-25T15:33:08.578Z,17.90
2018-12-25T15:35:38.038Z,15.70
2018-12-25T15:38:07.545Z,15.37
2018-12-25T15:40:37.353Z,17.80
2018-12-25T15:43:07.178Z,15.83
2018-12-25T15:45:37.120Z,16.73
2018-12-25T15:48:06.724Z,15.77
2018-12-25T15:50:36.256Z,15.93
2018-12-25T15:53:06.284Z,16.43
2018-12-25T15:55:36.485Z,16.20
2018-12-25T15:58:06.244Z,16.00
2018-12-25T16:00:35.626Z,15.50
2018-12-25T16:03:05.074Z,19.83
2018-12-25T16:05:34.561Z,17.80
2018-12-25T16:08:04.223Z,14.63
2018-12-25T16:10:34.022Z,15.60
2018-12-25T16:13:03.474Z,14.50
2018-12-25T16:15:32.944Z,17.40
2018-12-25T16:18:02.407Z,15.20
2018-12-25T16:20:32.226Z,16.97
2018-12-25T16:23:02.076Z,15.57
2018-12-25T16:25:31.510Z,17.03
2018-12-25T16:28:01.046Z,16.50
2018-12-25T16:30:30.476Z,16.70
2018-12-25T16:33:00.066Z,16.93
2018-12-25T16:35:29.500Z,16.63
2018-12-25T16:37:59.315Z,16.73
2018-12-25T16:40:28.804Z,16.87
2018-12-25T16:42:58.355Z,15.93
2018-12-25T16:45:27.809Z,18.97
2018-12-25T16:47:58.697Z,15.93
2018-12-25T16:50:28.380Z,15.80
2018-12-25T16:52:57.892Z,16.90
2018-12-25T16:55:27.409Z,17.47
2018-12-25T16:57:56.830Z,19.23
2018-12-25T17:00:26.364Z,16.13
2018-12-25T17:02:55.858Z,17.70
2018-12-25T17:05:25.340Z,19.80
2018-12-25T17:07:54.814Z,18.40
2018-12-25T17:10:24.722Z,18.73
2018-12-25T17:12:56.219Z,17.90
2018-12-25T17:15:25.832Z,18.30
2018-12-25T17:17:55.609Z,18.67
2018-12-25T17:20:25.394Z,19.33
2018-12-25T17:22:55.046Z,18.47
2018-12-25T17:25:24.526Z,20.57
2018-12-25T17:27:54.051Z,20.47
2018-12-25T17:30:23.637Z,21.17
2018-12-25T17:32:53.037Z,21.40
2018-12-25T17:35:22.435Z,19.77
2018-12-25T17:37:51.942Z,22.17
2018-12-25T17:40:21.353Z,20.43
2018-12-25T17:42:52.830Z,20.47
2018-12-25T17:45:22.459Z,21.27
2018-12-25T17:47:51.933Z,20.07
2018-12-25T17:50:21.364Z,22.03
2018-12-25T17:52:50.903Z,19.63
2018-12-25T17:55:20.660Z,20.17
2018-12-25T17:57:50.107Z,26.33
2018-12-25T18:00:19.613Z,24.23
2018-12-25T18:02:49.049Z,29.37
2018-12-25T18:05:18.513Z,24.03
2018-12-25T18:07:47.942Z,26.00
2018-12-25T18:10:18.475Z,25.40
2018-12-25T18:12:48.391Z,28.23
2018-12-25T18:15:17.916Z,28.70
2018-12-25T18:17:47.367Z,30.00
2018-12-25T18:20:17.125Z,26.90
2018-12-25T18:22:46.530Z,27.83
2018-12-25T18:25:17.258Z,28.13
2018-12-25T18:27:46.666Z,27.37
2018-12-25T18:30:16.123Z,26.33
2018-12-25T18:32:45.603Z,24.23
2018-12-25T18:35:15.047Z,24.77
2018-12-25T18:37:44.434Z,28.77
2018-12-25T18:40:13.937Z,24.03
2018-12-25T18:42:43.892Z,24.40
2018-12-25T18:45:13.760Z,26.73
2018-12-25T18:47:43.261Z,25.93
2018-12-25T18:50:12.728Z,27.47
2018-12-25T18:52:42.085Z,32.33
2018-12-25T18:55:11.872Z,30.10
2018-12-25T18:57:41.307Z,29.33
2018-12-25T19:00:11.772Z,28.10
2018-12-25T19:02:41.189Z,27.47
2018-12-25T19:05:10.738Z,28.13
2018-12-25T19:07:40.166Z,26.37
2018-12-25T19:10:10.551Z,30.00
2018-12-25T19:12:39.926Z,25.23
2018-12-25T19:15:40.632Z,26.37
2018-12-25T19:18:12.764Z,27.60
2018-12-25T19:20:42.595Z,32.03
2018-12-25T19:23:12.460Z,27.07
2018-12-25T19:25:41.924Z,27.27
2018-12-25T19:28:11.433Z,26.73
2018-12-25T19:30:41.683Z,31.37
2018-12-25T19:33:11.168Z,27.77
2018-12-25T19:35:40.614Z,32.60
2018-12-25T19:38:10.119Z,30.50
2018-12-25T19:40:39.595Z,31.67
2018-12-25T19:43:09.057Z,30.43
2018-12-25T19:45:38.572Z,29.83
2018-12-25T19:48:08.055Z,30.77
2018-12-25T19:50:37.555Z,34.03
2018-12-25T19:53:07.354Z,30.87
2018-12-25T19:55:36.970Z,29.83
2018-12-25T19:58:06.498Z,32.70
2018-12-25T20:00:35.968Z,30.30
2018-12-25T20:03:19.378Z,32.30
2018-12-25T20:06:31.264Z,30.67
2018-12-25T20:09:59.790Z,30.83
2018-12-25T20:13:06.363Z,31.23
2018-12-25T20:16:20.289Z,30.03
2018-12-25T20:19:31.155Z,32.63
2018-12-25T20:22:38.925Z,30.13
2018-12-25T20:26:06.168Z,29.83
2018-12-25T20:29:12.446Z,34.10
2018-12-25T20:32:19.691Z,33.73
2018-12-25T20:35:41.364Z,33.03
2018-12-25T20:39:05.065Z,33.27
2018-12-25T20:42:39.860Z,36.20
2018-12-25T20:45:48.151Z,33.07
2018-12-25T20:48:48.284Z,33.00
2018-12-25T20:51:54.397Z,32.27
2018-12-25T20:55:02.269Z,34.20
2018-12-25T20:58:19.143Z,32.57
2018-12-25T21:01:33.591Z,36.23
2018-12-25T21:05:07.471Z,35.23
2018-12-25T21:08:32.018Z,33.77
2018-12-25T21:12:01.661Z,34.17
2018-12-25T21:15:07.778Z,35.40
2018-12-25T21:18:13.336Z,37.13
2018-12-25T21:21:24.230Z,34.30
2018-12-25T21:24:29.831Z,36.13
2018-12-25T21:27:34.958Z,34.27
2018-12-25T21:30:06.968Z,36.27
2018-12-25T21:32:41.567Z,34.70
2018-12-25T21:35:22.560Z,34.57
2018-12-25T21:37:52.643Z,36.83
2018-12-25T21:40:22.854Z,37.60
2018-12-25T21:42:53.896Z,38.67
2018-12-25T21:45:23.662Z,36.83
2018-12-25T21:47:54.126Z,38.37
2018-12-25T21:50:23.827Z,36.73
2018-12-25T21:52:54.007Z,33.83
2018-12-25T21:55:24.130Z,36.83
2018-12-25T21:57:54.418Z,35.20
2018-12-25T22:00:26.180Z,34.93
2018-12-25T22:02:55.931Z,35.03
2018-12-25T22:05:25.627Z,32.57
2018-12-25T22:07:55.049Z,33.20
2018-12-25T22:10:25.128Z,35.40
2018-12-25T22:12:54.528Z,34.47
2018-12-25T22:15:24.162Z,32.40
2018-12-25T22:17:53.580Z,33.87
2018-12-25T22:20:28.907Z,35.83
2018-12-25T22:22:58.635Z,38.00
2018-12-25T22:25:28.057Z,37.13
2018-12-25T22:27:57.599Z,36.17
2018-12-25T22:30:26.994Z,36.03
2018-12-25T22:32:56.465Z,36.00
2018-12-25T22:35:26.618Z,36.40
2018-12-25T22:37:56.115Z,36.03
2018-12-25T22:40:25.509Z,38.50
2018-12-25T22:42:54.967Z,37.70
2018-12-25T22:45:24.713Z,37.17
2018-12-25T22:47:54.211Z,36.70
2018-12-25T22:50:23.893Z,34.40
2018-12-25T22:52:53.463Z,35.30
2018-12-25T22:55:23.007Z,35.37
2018-12-25T22:57:52.468Z,36.67
2018-12-25T23:00:21.901Z,38.83
2018-12-25T23:02:51.417Z,38.57
2018-12-25T23:05:20.826Z,35.40
2018-12-25T23:07:50.213Z,38.07
2018-12-25T23:10:19.636Z,37.63
2018-12-25T23:12:49.151Z,39.97
2018-12-25T23:15:18.611Z,37.97
2018-12-25T23:17:48.033Z,39.60
2018-12-25T23:20:17.748Z,38.13
2018-12-25T23:22:47.489Z,39.27
2018-12-25T23:25:17.400Z,39.78
2018-12-25T23:27:46.772Z,42.47
2018-12-25T23:30:16.209Z,41.40
2018-12-25T23:32:45.659Z,39.77
2018-12-25T23:35:15.167Z,39.97
2018-12-25T23:37:44.580Z,39.93
2018-12-25T23:40:14.036Z,42.73
2018-12-25T23:42:43.558Z,40.40
2018-12-25T23:45:12.943Z,43.33
2018-12-25T23:47:42.720Z,46.83
2018-12-25T23:50:12.184Z,42.53
2018-12-25T23:52:41.582Z,41.97
2018-12-25T23:55:10.958Z,46.40
2018-12-25T23:57:40.341Z,41.37
